Time;durP1;ratioP1;P1;durP2;ratioP2;P2;SDS_P1;SDS_P2;PMS_P1;PMS_P2;Temp;Humidity;BMP_temperature;BMP_pressure;BME280_temperature;BME280_humidity;BME280_pressure;Samples;Min_cycle;Max_cycle;Signal;HPM_P1;HPM_P2
2021/10/02 00:52:32;;;;;;;14.13;12.67;;;;;;;8.19;100.00;101118.06;20989462;28;20237;-75
2021/10/02 01:02:44;;;;;;;15.83;13.37;;;;;;;8.20;100.00;101111.81;20988761;28;20234;-73
2021/10/02 01:13:02;;;;;;;14.17;12.77;;;;;;;8.18;100.00;101099.50;20988194;28;20248;-75
2021/10/02 01:53:15;;;;;;;17.50;15.13;;;;;;;8.35;100.00;101066.88;20989767;27;20560;-75
2021/10/02 02:03:19;;;;;;;21.37;15.60;;;;;;;8.72;100.00;101053.72;20974634;28;20239;-77
2021/10/02 02:13:24;;;;;;;16.00;14.27;;;;;;;9.01;100.00;101061.25;20974304;28;20252;-75
2021/10/02 02:23:27;;;;;;;17.23;15.00;;;;;;;9.14;100.00;101044.69;20929782;28;20340;-75
2021/10/02 02:33:31;;;;;;;20.30;15.17;;;;;;;9.26;100.00;101039.66;20940125;28;20226;-75
2021/10/02 02:43:35;;;;;;;18.73;14.70;;;;;;;9.28;100.00;101020.94;20892715;28;20249;-72
2021/10/02 02:53:45;;;;;;;20.43;14.83;;;;;;;9.34;100.00;101017.97;20901154;28;20231;-73
2021/10/02 03:03:49;;;;;;;16.30;12.20;;;;;;;9.43;100.00;101025.53;20917538;28;20296;-73
2021/10/02 03:13:56;;;;;;;13.13;11.63;;;;;;;9.50;100.00;101020.78;20913999;28;20231;-72
2021/10/02 03:23:59;;;;;;;13.87;11.53;;;;;;;9.53;100.00;101013.50;20850741;28;20243;-72
2021/10/02 03:34:02;;;;;;;15.77;12.70;;;;;;;9.59;100.00;101001.66;20830166;28;20224;-75
2021/10/02 03:44:07;;;;;;;12.60;11.23;;;;;;;9.66;100.00;101011.94;20829481;28;20322;-75
2021/10/02 03:54:11;;;;;;;11.77;10.17;;;;;;;9.73;100.00;101000.06;20828999;28;20223;-74
2021/10/02 04:04:14;;;;;;;10.10;8.60;;;;;;;9.82;100.00;101005.84;20826751;28;20264;-76
2021/10/02 04:14:17;;;;;;;10.23;8.77;;;;;;;9.83;100.00;101012.91;20826380;28;20224;-74
2021/10/02 04:24:22;;;;;;;10.37;9.20;;;;;;;9.83;100.00;100989.78;20854393;28;20235;-75
2021/10/02 04:34:26;;;;;;;12.40;9.27;;;;;;;9.84;100.00;100999.50;20883962;28;20223;-75
2021/10/02 04:44:29;;;;;;;12.30;10.33;;;;;;;9.82;100.00;100989.84;20906799;28;20231;-76
2021/10/02 04:54:33;;;;;;;11.43;9.80;;;;;;;9.87;100.00;100971.84;20906772;28;20223;-76
2021/10/02 05:04:35;;;;;;;12.47;9.73;;;;;;;9.96;100.00;100977.56;20866862;28;20373;-71
2021/10/02 05:14:42;;;;;;;11.97;9.80;;;;;;;10.14;100.00;100973.09;20905125;28;20227;-71
2021/10/02 05:24:44;;;;;;;13.17;9.40;;;;;;;10.33;100.00;100971.22;20904112;28;20739;-72
2021/10/02 05:34:48;;;;;;;13.73;10.97;;;;;;;10.39;100.00;100965.53;20901338;28;20314;-74
2021/10/02 05:44:50;;;;;;;11.77;10.37;;;;;;;10.49;100.00;100965.06;20900014;28;20236;-74
2021/10/02 05:54:54;;;;;;;15.40;11.83;;;;;;;10.65;100.00;100963.28;20903094;28;20214;-74
2021/10/02 06:14:56;;;;;;;13.27;11.60;;;;;;;11.03;100.00;100956.69;21117728;27;20587;-74
2021/10/02 06:25:03;;;;;;;12.83;11.53;;;;;;;11.26;100.00;100952.72;21100819;27;20275;-73
2021/10/02 06:35:11;;;;;;;12.77;11.43;;;;;;;11.49;100.00;100959.41;21087898;27;20263;-73
2021/10/02 06:45:13;;;;;;;12.90;11.60;;;;;;;11.73;100.00;100957.97;21190637;27;20278;-70
2021/10/02 06:55:20;;;;;;;11.53;10.23;;;;;;;11.96;100.00;100966.47;21211627;27;20231;-70
2021/10/02 07:05:23;;;;;;;10.63;9.53;;;;;;;12.30;100.00;100973.38;21190861;27;20332;-71
2021/10/02 07:15:27;;;;;;;11.73;10.57;;;;;;;12.49;100.00;100973.94;21134692;27;20316;-69
2021/10/02 07:25:29;;;;;;;10.77;9.77;;;;;;;12.61;100.00;100970.50;21058807;27;20347;-69
2021/10/02 07:35:33;;;;;;;9.13;8.33;;;;;;;12.90;100.00;100955.28;21058970;28;20232;-70
2021/10/02 07:45:36;;;;;;;11.63;10.53;;;;;;;13.02;100.00;100940.25;21062821;28;20322;-69
2021/10/02 07:55:40;;;;;;;11.90;10.70;;;;;;;13.11;100.00;100956.59;21049540;28;20238;-69
2021/10/02 08:05:42;;;;;;;11.20;10.10;;;;;;;13.30;100.00;100941.03;21065959;28;20243;-73
2021/10/02 08:15:49;;;;;;;11.57;10.23;;;;;;;13.49;100.00;100939.84;21100474;27;20216;-66
2021/10/02 08:25:52;;;;;;;14.53;13.13;;;;;;;13.90;100.00;100943.25;21058219;28;20274;-67
2021/10/02 08:35:56;;;;;;;17.87;14.13;;;;;;;14.21;100.00;100922.38;21039818;28;20698;-66
2021/10/02 08:45:58;;;;;;;17.23;14.67;;;;;;;14.65;100.00;100933.56;21061732;28;20978;-66
2021/10/02 08:56:03;;;;;;;13.37;12.07;;;;;;;14.83;100.00;100928.69;21044090;28;20378;-68
2021/10/02 09:06:05;;;;;;;14.07;12.53;;;;;;;15.27;100.00;100922.75;21068654;28;20246;-69
2021/10/02 09:16:12;;;;;;;11.27;10.07;;;;;;;15.40;100.00;100920.88;21069529;28;20229;-68
2021/10/02 09:26:15;;;;;;;9.10;8.30;;;;;;;15.74;100.00;100913.81;21047052;27;20310;-70
2021/10/02 09:36:23;;;;;;;8.33;7.60;;;;;;;16.00;100.00;100914.50;21142490;27;20225;-67
2021/10/02 09:46:33;;;;;;;7.97;7.27;;;;;;;16.05;100.00;100901.56;21119630;27;20277;-67
2021/10/02 09:56:37;;;;;;;8.97;8.17;;;;;;;16.30;100.00;100895.09;21141993;27;20579;-68
2021/10/02 10:06:40;;;;;;;11.10;9.50;;;;;;;16.53;100.00;100890.59;21117150;27;20223;-67
2021/10/02 10:16:44;;;;;;;12.63;11.43;;;;;;;16.87;100.00;100884.22;21140378;27;20764;-66
2021/10/02 10:26:47;;;;;;;14.63;10.63;;;;;;;16.92;100.00;100860.41;21122054;27;20754;-68
2021/10/02 10:36:51;;;;;;;16.43;12.27;;;;;;;16.96;100.00;100850.25;21134550;27;20654;-69
2021/10/02 10:46:53;;;;;;;14.67;11.80;;;;;;;17.30;100.00;100842.91;21129801;27;20232;-69
2021/10/02 10:56:58;;;;;;;10.47;9.60;;;;;;;17.54;100.00;100830.03;21133418;27;20227;-69
2021/10/02 11:07:00;;;;;;;7.93;7.33;;;;;;;18.22;100.00;100834.03;21150197;27;20250;-70
2021/10/02 11:17:05;;;;;;;6.90;6.30;;;;;;;18.82;100.00;100829.59;21131535;27;20236;-68
2021/10/02 11:27:08;;;;;;;7.00;6.40;;;;;;;18.84;100.00;100827.56;21152851;27;20240;-69
2021/10/02 11:37:12;;;;;;;6.50;6.00;;;;;;;18.37;100.00;100812.91;21128795;27;20237;-74
2021/10/02 11:47:32;;;;;;;6.10;5.70;;;;;;;18.22;100.00;100800.78;21151133;27;20225;-64
2021/10/02 11:57:36;;;;;;;6.50;6.00;;;;;;;18.13;100.00;100810.53;21069289;27;20226;-65
2021/10/02 12:07:40;;;;;;;6.23;5.63;;;;;;;18.39;100.00;100788.44;21134604;27;20245;-65
2021/10/02 12:17:54;;;;;;;5.73;5.33;;;;;;;18.78;100.00;100790.28;21137862;27;20218;-64
2021/10/02 12:27:56;;;;;;;5.77;5.27;;;;;;;19.77;100.00;100795.44;21130369;27;20618;-65
2021/10/02 12:38:00;;;;;;;5.43;5.03;;;;;;;20.94;100.00;100791.19;21133443;28;20252;-66
2021/10/02 12:48:05;;;;;;;5.57;5.17;;;;;;;20.99;100.00;100788.88;21123038;27;20308;-66
2021/10/02 12:58:15;;;;;;;5.63;5.23;;;;;;;20.52;100.00;100769.19;21145135;28;20755;-65
2021/10/02 13:08:20;;;;;;;5.73;5.33;;;;;;;20.12;100.00;100772.22;21126530;27;20262;-66
2021/10/02 13:18:26;;;;;;;5.50;5.10;;;;;;;20.05;100.00;100771.06;21143740;28;20224;-66
2021/10/02 13:28:30;;;;;;;6.20;5.70;;;;;;;20.16;100.00;100760.09;21062503;28;20234;-69
2021/10/02 13:38:39;;;;;;;6.20;5.70;;;;;;;20.42;100.00;100749.41;21138796;27;20301;-67
2021/10/02 13:48:43;;;;;;;6.37;5.87;;;;;;;20.30;100.00;100747.88;21126442;27;20225;-66
2021/10/02 13:58:48;;;;;;;6.93;6.40;;;;;;;19.88;100.00;100747.50;21131999;27;20281;-66
2021/10/02 14:09:00;;;;;;;7.00;6.50;;;;;;;19.55;100.00;100757.84;21122216;27;20707;-72
2021/10/02 14:19:05;;;;;;;7.87;7.27;;;;;;;18.86;100.00;100755.28;21124655;27;20240;-67
2021/10/02 14:29:07;;;;;;;7.90;7.40;;;;;;;18.58;100.00;100766.91;21142408;27;20301;-67
2021/10/02 14:39:14;;;;;;;8.53;7.93;;;;;;;18.46;100.00;100752.63;21133778;27;20224;-65
2021/10/02 14:49:21;;;;;;;8.77;8.07;;;;;;;18.48;100.00;100749.78;21156343;27;20226;-66
2021/10/02 14:59:28;;;;;;;8.70;7.97;;;;;;;18.58;100.00;100761.50;21130498;27;20226;-65
2021/10/02 15:09:37;;;;;;;8.57;7.90;;;;;;;18.49;100.00;100770.41;21149008;27;20300;-71
2021/10/02 15:19:45;;;;;;;9.87;8.97;;;;;;;17.90;100.00;100760.38;21128067;27;20217;-65
2021/10/02 15:29:49;;;;;;;9.47;8.67;;;;;;;17.21;100.00;100770.84;21141930;27;20229;-73
2021/10/02 15:39:53;;;;;;;8.77;8.03;;;;;;;16.57;100.00;100768.94;21133051;27;20224;-71
2021/10/02 15:49:56;;;;;;;9.87;9.07;;;;;;;16.09;100.00;100763.00;21134798;27;20229;-58
2021/10/02 16:00:04;;;;;;;11.07;10.07;;;;;;;15.62;100.00;100745.25;21138221;27;20249;-56
2021/10/02 16:10:15;;;;;;;13.00;11.90;;;;;;;15.23;100.00;100751.00;21121621;28;20233;-56
2021/10/02 16:20:19;;;;;;;12.60;11.60;;;;;;;14.77;100.00;100739.22;21146124;28;20221;-63
2021/10/02 16:30:25;;;;;;;13.47;12.27;;;;;;;14.56;100.00;100735.47;21133324;28;20276;-58
2021/10/02 16:40:29;;;;;;;14.30;13.00;;;;;;;14.34;100.00;100740.66;21150929;28;20695;-61
2021/10/02 16:50:34;;;;;;;14.83;13.40;;;;;;;14.12;100.00;100748.56;21146425;27;20251;-56
2021/10/02 17:00:38;;;;;;;16.10;14.60;;;;;;;13.80;100.00;100759.75;21149865;28;20834;-58
2021/10/02 17:10:40;;;;;;;18.20;16.47;;;;;;;13.56;100.00;100769.53;21145567;28;20690;-57
2021/10/02 17:20:44;;;;;;;16.73;15.13;;;;;;;13.43;100.00;100774.00;21154859;28;20215;-58
2021/10/02 17:30:47;;;;;;;16.33;14.93;;;;;;;13.29;100.00;100773.13;21155776;28;20229;-57
2021/10/02 17:40:51;;;;;;;17.47;15.73;;;;;;;13.14;100.00;100768.84;21138041;28;20714;-58
2021/10/02 17:50:59;;;;;;;18.80;16.97;;;;;;;13.02;100.00;100747.34;21130786;27;20239;-56
2021/10/02 18:01:04;;;;;;;17.40;15.80;;;;;;;12.95;100.00;100761.13;21147103;28;20236;-57
2021/10/02 18:11:07;;;;;;;16.67;15.07;;;;;;;12.82;100.00;100780.78;21150849;28;20231;-58
2021/10/02 18:21:11;;;;;;;18.20;16.30;;;;;;;12.75;100.00;100787.53;21150518;28;20271;-58
2021/10/02 18:31:14;;;;;;;17.07;15.47;;;;;;;12.68;100.00;100796.94;21152937;28;20661;-58
2021/10/02 18:41:18;;;;;;;17.77;16.17;;;;;;;12.52;100.00;100810.44;21152285;28;20709;-62
2021/10/02 18:51:20;;;;;;;17.90;16.20;;;;;;;12.39;100.00;100807.69;21151800;28;20281;-58
2021/10/02 19:01:24;;;;;;;18.10;16.33;;;;;;;12.25;100.00;100805.03;21152013;28;20221;-58
2021/10/02 19:11:27;;;;;;;17.60;16.00;;;;;;;12.27;100.00;100797.78;21151512;28;20598;-58
2021/10/02 19:21:30;;;;;;;16.37;14.90;;;;;;;12.25;100.00;100800.56;21164509;27;20229;-58
2021/10/02 19:31:33;;;;;;;17.30;15.60;;;;;;;12.20;100.00;100780.38;21165288;28;20734;-58
2021/10/02 19:41:37;;;;;;;17.53;15.93;;;;;;;12.10;100.00;100789.94;21164673;27;20266;-60
2021/10/02 19:51:42;;;;;;;16.20;14.80;;;;;;;12.00;100.00;100792.34;21163930;27;20646;-65
2021/10/02 20:01:46;;;;;;;17.20;15.60;;;;;;;11.92;100.00;100791.13;21163323;27;20225;-62
2021/10/02 20:11:49;;;;;;;17.67;15.93;;;;;;;11.74;100.00;100772.53;21131771;28;20222;-58
2021/10/02 20:21:53;;;;;;;19.53;17.17;;;;;;;11.74;100.00;100788.59;21162479;27;20739;-59
2021/10/02 20:31:55;;;;;;;19.07;17.17;;;;;;;11.66;100.00;100790.88;21161527;28;20471;-62
2021/10/02 20:41:59;;;;;;;17.90;16.20;;;;;;;11.58;100.00;100786.97;21152553;27;20292;-63
2021/10/02 20:52:02;;;;;;;17.37;15.57;;;;;;;11.49;100.00;100777.66;21145251;27;20581;-62
2021/10/02 21:12:05;;;;;;;17.60;15.90;;;;;;;11.37;100.00;100759.69;21031712;27;20599;-60
2021/10/02 21:22:09;;;;;;;18.97;17.03;;;;;;;11.35;100.00;100738.41;21008446;27;20227;-60
2021/10/02 21:32:14;;;;;;;18.50;16.70;;;;;;;11.36;100.00;100744.63;21038658;27;20214;-60
2021/10/02 21:42:17;;;;;;;17.70;15.90;;;;;;;11.26;100.00;100755.00;20973335;28;20260;-61
2021/10/02 21:52:21;;;;;;;18.00;16.00;;;;;;;11.14;100.00;100756.59;20972139;28;20265;-61
2021/10/02 22:02:23;;;;;;;17.60;15.80;;;;;;;11.05;100.00;100761.63;20971379;28;20239;-60
2021/10/02 22:12:27;;;;;;;17.53;15.73;;;;;;;10.95;100.00;100761.34;21016152;27;20245;-60
2021/10/02 22:22:30;;;;;;;18.60;16.70;;;;;;;10.86;100.00;100772.56;20918332;27;20223;-61
2021/10/02 22:32:34;;;;;;;20.67;16.53;;;;;;;10.78;100.00;100780.13;20914185;28;20223;-60
2021/10/02 22:42:38;;;;;;;18.17;15.87;;;;;;;10.64;100.00;100788.91;20956438;28;20246;-60
2021/10/02 22:52:43;;;;;;;17.97;16.07;;;;;;;10.52;100.00;100788.75;20966988;28;20281;-61
2021/10/02 23:02:46;;;;;;;18.23;15.83;;;;;;;10.41;100.00;100779.56;20911819;28;20234;-60
2021/10/02 23:12:49;;;;;;;19.43;17.43;;;;;;;10.23;100.00;100763.72;20911208;28;20234;-60
2021/10/02 23:22:53;;;;;;;20.00;17.80;;;;;;;10.32;100.00;100788.06;20910208;28;20251;-60
2021/10/02 23:32:57;;;;;;;18.60;16.63;;;;;;;10.24;100.00;100795.66;20957740;28;20303;-60
2021/10/02 23:43:00;;;;;;;20.43;18.30;;;;;;;10.20;100.00;100798.56;20908836;28;20235;-61
2021/10/02 23:53:06;;;;;;;19.43;17.33;;;;;;;10.10;100.00;100796.38;20907908;28;20245;-61
